createdAt,value
2018-06-27T00:00:18.237Z,60447.68
2018-06-27T00:02:46.406Z,60441.58
2018-06-27T00:05:14.590Z,60461.91
2018-06-27T00:07:42.758Z,60443.61
2018-06-27T00:10:10.927Z,60470.04
2018-06-27T00:12:39.106Z,60435.48
2018-06-27T00:15:07.279Z,60472.07
2018-06-27T00:17:35.459Z,60439.55
2018-06-27T00:20:03.676Z,60444.63
2018-06-27T00:22:31.880Z,60475.12
2018-06-27T00:25:00.064Z,60461.91
2018-06-27T00:27:28.237Z,60473.09
2018-06-27T00:29:56.426Z,60454.79
2018-06-27T00:32:24.586Z,60466.99
2018-06-27T00:34:52.760Z,60464.96
2018-06-27T00:37:20.946Z,60459.87
2018-06-27T00:39:49.130Z,60461.91
2018-06-27T00:42:17.304Z,60462.92
2018-06-27T00:44:45.479Z,60455.81
2018-06-27T00:47:13.659Z,60437.52
2018-06-27T00:49:41.824Z,60450.73
2018-06-27T00:52:10.004Z,60470.04
2018-06-27T00:54:38.179Z,60468.00
2018-06-27T00:57:06.343Z,60457.84
2018-06-27T00:59:34.526Z,60469.02
2018-06-27T01:02:02.691Z,60452.76
2018-06-27T01:04:30.850Z,60476.13
2018-06-27T01:06:59.027Z,60461.91
2018-06-27T01:09:27.710Z,60503.57
2018-06-27T01:11:55.898Z,60489.34
2018-06-27T01:14:24.060Z,60460.89
2018-06-27T01:16:52.242Z,60464.96
2018-06-27T01:19:20.419Z,60483.25
2018-06-27T01:21:49.019Z,60463.94
2018-06-27T01:24:17.216Z,60492.39
2018-06-27T01:26:45.391Z,60458.86
2018-06-27T01:29:13.555Z,60469.02
2018-06-27T01:31:41.730Z,60480.20
2018-06-27T01:34:09.906Z,60456.82
2018-06-27T01:36:38.115Z,60460.89
2018-06-27T01:39:08.042Z,60478.16
2018-06-27T01:41:36.234Z,60464.96
2018-06-27T01:44:04.448Z,60450.73
2018-06-27T01:46:32.771Z,60456.82
2018-06-27T01:49:00.953Z,60503.57
2018-06-27T01:51:29.127Z,60459.87
2018-06-27T01:53:57.282Z,60461.91
2018-06-27T01:56:25.457Z,60464.96
2018-06-27T01:58:53.618Z,60483.25
2018-06-27T02:01:21.802Z,60470.04
2018-06-27T02:03:49.967Z,60503.57
2018-06-27T02:06:18.133Z,60479.18
2018-06-27T02:08:46.339Z,60481.21
2018-06-27T02:11:14.494Z,60516.78
2018-06-27T02:13:42.693Z,60471.05
2018-06-27T02:16:10.917Z,60483.25
2018-06-27T02:18:39.070Z,60487.31
2018-06-27T02:21:07.246Z,60462.92
2018-06-27T02:23:35.410Z,60482.23
2018-06-27T02:26:03.615Z,60490.36
2018-06-27T02:28:31.791Z,60498.49
2018-06-27T02:31:00.068Z,60498.49
2018-06-27T02:33:28.251Z,60481.21
2018-06-27T02:35:56.842Z,60500.52
2018-06-27T02:38:25.370Z,60477.15
2018-06-27T02:40:53.519Z,60450.73
2018-06-27T02:43:22.011Z,60462.92
2018-06-27T02:45:50.223Z,60485.28
2018-06-27T02:48:18.426Z,60458.86
2018-06-27T02:50:46.637Z,60494.43
2018-06-27T02:53:14.899Z,60510.68
2018-06-27T02:55:43.063Z,60436.50
2018-06-27T02:58:11.278Z,60471.05
2018-06-27T03:00:39.439Z,60456.82
2018-06-27T03:03:07.623Z,60493.41
2018-06-27T03:05:35.815Z,60454.79
2018-06-27T03:08:03.988Z,60478.16
2018-06-27T03:10:32.179Z,60464.96
2018-06-27T03:13:00.369Z,60489.34
2018-06-27T03:15:28.561Z,60475.12
2018-06-27T03:17:56.731Z,60488.33
2018-06-27T03:20:24.944Z,60495.44
2018-06-27T03:22:53.074Z,60493.41
2018-06-27T03:25:21.238Z,60499.50
2018-06-27T03:27:49.423Z,60497.47
2018-06-27T03:30:17.599Z,60472.07
2018-06-27T03:32:45.778Z,60502.55
2018-06-27T03:35:13.954Z,60505.60
2018-06-27T03:37:42.111Z,60490.36
2018-06-27T03:40:10.303Z,60517.80
2018-06-27T03:42:38.466Z,60492.39
2018-06-27T03:45:06.643Z,60492.39
2018-06-27T03:47:34.823Z,60482.23
2018-06-27T03:50:03.015Z,60494.43
2018-06-27T03:52:31.208Z,60468.00
2018-06-27T03:54:59.422Z,60486.29
2018-06-27T03:57:27.563Z,60468.00
2018-06-27T03:59:55.726Z,60478.16
2018-06-27T04:02:23.894Z,60484.26
2018-06-27T04:04:52.074Z,60501.54
2018-06-27T04:07:20.252Z,60499.50
2018-06-27T04:09:48.415Z,60482.23
2018-06-27T04:12:16.606Z,60470.04
2018-06-27T04:14:44.782Z,60496.46
2018-06-27T04:19:47.575Z,60502.55
2018-06-27T04:22:20.147Z,60502.55
2018-06-27T04:24:48.326Z,60490.36
2018-06-27T04:27:16.504Z,60494.43
2018-06-27T04:29:44.678Z,60502.55
2018-06-27T04:32:12.869Z,60471.05
2018-06-27T04:34:41.055Z,60484.26
2018-06-27T04:37:09.231Z,60490.36
2018-06-27T04:39:37.422Z,60485.28
2018-06-27T04:42:05.837Z,60462.92
2018-06-27T04:44:34.043Z,60479.18
2018-06-27T04:47:02.238Z,60492.39
2018-06-27T04:49:30.489Z,60494.43
2018-06-27T04:51:58.611Z,60463.94
2018-06-27T04:54:26.778Z,60492.39
2018-06-27T04:56:54.962Z,60479.18
2018-06-27T04:59:23.159Z,60489.34
2018-06-27T05:01:51.363Z,60478.16
2018-06-27T05:04:19.530Z,60480.20
2018-06-27T05:06:47.751Z,60471.05
2018-06-27T05:09:15.926Z,60487.31
2018-06-27T05:11:44.181Z,60466.99
2018-06-27T05:14:12.272Z,60454.79
2018-06-27T05:16:40.439Z,60475.12
2018-06-27T05:19:08.615Z,60461.91
2018-06-27T05:21:36.786Z,60456.82
2018-06-27T05:24:05.144Z,60471.05
2018-06-27T05:26:33.322Z,60468.00
2018-06-27T05:29:01.563Z,60476.13
2018-06-27T05:31:29.731Z,60437.52
2018-06-27T05:34:00.822Z,60487.31
2018-06-27T05:36:29.009Z,60459.87
2018-06-27T05:38:57.195Z,60471.05
2018-06-27T05:41:25.405Z,60455.81
2018-06-27T05:43:53.987Z,60449.71
2018-06-27T05:46:22.164Z,60484.26
2018-06-27T05:48:50.346Z,60473.09
2018-06-27T05:51:18.511Z,60458.86
2018-06-27T05:53:46.694Z,60493.41
2018-06-27T05:56:14.862Z,60464.96
2018-06-27T05:58:43.047Z,60465.97
2018-06-27T06:01:11.230Z,60453.78
2018-06-27T06:03:39.402Z,60470.04
2018-06-27T06:06:07.586Z,60468.00
2018-06-27T06:08:35.754Z,60498.49
2018-06-27T06:11:03.937Z,60457.84
2018-06-27T06:13:32.192Z,60473.09
2018-06-27T06:16:00.410Z,60464.96
2018-06-27T06:18:28.594Z,60453.78
2018-06-27T06:20:56.771Z,60482.23
2018-06-27T06:23:25.052Z,60449.71
2018-06-27T06:25:53.275Z,60419.23
2018-06-27T06:28:21.466Z,60456.82
2018-06-27T06:30:49.675Z,60431.42
2018-06-27T06:33:17.863Z,60448.70
2018-06-27T06:35:46.091Z,60465.97
2018-06-27T06:38:14.283Z,60431.42
2018-06-27T06:40:42.494Z,60438.53
2018-06-27T06:43:11.458Z,60463.94
2018-06-27T06:45:39.675Z,60445.65
2018-06-27T06:48:07.874Z,60446.66
2018-06-27T06:50:36.048Z,60441.58
2018-06-27T06:53:04.220Z,60454.79
2018-06-27T06:55:32.570Z,60416.18
2018-06-27T06:58:00.747Z,60455.81
2018-06-27T07:00:29.022Z,60442.60
2018-06-27T07:02:57.212Z,60408.05
2018-06-27T07:05:25.387Z,60447.68
2018-06-27T07:07:53.571Z,60429.39
2018-06-27T07:10:21.759Z,60433.45
2018-06-27T07:12:50.107Z,60413.13
2018-06-27T07:15:18.283Z,60436.50
2018-06-27T07:17:46.540Z,60454.79
2018-06-27T07:20:14.711Z,60446.66
2018-06-27T07:22:42.887Z,60430.40
2018-06-27T07:25:11.079Z,60423.29
2018-06-27T07:27:39.247Z,60395.86
2018-06-27T07:30:07.435Z,60422.27
2018-06-27T07:32:35.611Z,60412.11
2018-06-27T07:35:03.861Z,60426.34
2018-06-27T07:37:31.979Z,60409.07
2018-06-27T07:40:00.151Z,60400.93
2018-06-27T07:42:28.319Z,60403.98
2018-06-27T07:44:56.503Z,60398.90
2018-06-27T07:47:24.667Z,60412.11
2018-06-27T07:49:52.924Z,60417.20
2018-06-27T07:52:21.063Z,60401.95
2018-06-27T07:54:49.239Z,60403.98
2018-06-27T07:57:17.419Z,60402.97
2018-06-27T07:59:45.579Z,60388.74
2018-06-27T08:02:20.106Z,60383.66
2018-06-27T08:04:48.279Z,60389.76
2018-06-27T08:07:16.450Z,60412.11
2018-06-27T08:09:44.647Z,60380.61
2018-06-27T08:12:12.855Z,60387.72
2018-06-27T08:14:41.004Z,60389.76
2018-06-27T08:17:09.203Z,60378.58
2018-06-27T08:19:37.375Z,60378.58
2018-06-27T08:22:05.887Z,60383.66
2018-06-27T08:24:34.068Z,60373.50
2018-06-27T08:27:02.307Z,60382.64
2018-06-27T08:29:30.487Z,60375.53
2018-06-27T08:31:58.659Z,60386.71
2018-06-27T08:34:26.847Z,60391.79
2018-06-27T08:36:55.175Z,60381.63
2018-06-27T08:39:23.376Z,60371.46
2018-06-27T08:41:51.560Z,60377.56
2018-06-27T08:44:19.795Z,60366.39
2018-06-27T08:46:47.915Z,60333.87
2018-06-27T08:49:16.079Z,60362.32
2018-06-27T08:51:44.251Z,60367.40
2018-06-27T08:54:12.411Z,60361.30
2018-06-27T08:56:40.579Z,60380.61
2018-06-27T08:59:08.763Z,60333.87
2018-06-27T09:01:36.939Z,60348.09
2018-06-27T09:04:05.133Z,60342.00
2018-06-27T09:06:33.304Z,60350.12
2018-06-27T09:09:01.470Z,60359.27
2018-06-27T09:11:29.659Z,60343.01
2018-06-27T09:13:57.823Z,60342.00
2018-06-27T09:16:26.005Z,60342.00
2018-06-27T09:18:54.158Z,60331.84
2018-06-27T09:21:22.341Z,60342.00
2018-06-27T09:23:50.507Z,60332.85
2018-06-27T09:26:18.675Z,60320.66
2018-06-27T09:28:46.850Z,60321.67
2018-06-27T09:31:15.057Z,60326.75
2018-06-27T09:33:43.205Z,60308.46
2018-06-27T09:36:11.379Z,60287.12
2018-06-27T09:38:39.563Z,60282.04
2018-06-27T09:41:07.766Z,60298.30
2018-06-27T09:43:35.947Z,60316.59
2018-06-27T09:46:04.151Z,60298.30
2018-06-27T09:48:32.345Z,60302.37
2018-06-27T09:51:00.523Z,60306.43
2018-06-27T09:53:28.751Z,60288.14
2018-06-27T09:55:57.025Z,60274.93
2018-06-27T09:58:25.183Z,60274.93
2018-06-27T10:00:53.391Z,60274.93
2018-06-27T10:03:21.553Z,60258.67
2018-06-27T10:05:49.735Z,60274.93
2018-06-27T10:08:17.898Z,60262.74
2018-06-27T10:10:46.067Z,60255.63
2018-06-27T10:13:14.248Z,60229.20
2018-06-27T10:15:42.416Z,60244.45
2018-06-27T10:18:10.595Z,60246.48
2018-06-27T10:20:38.756Z,60236.32
2018-06-27T10:23:07.069Z,60242.41
2018-06-27T10:25:35.235Z,60236.32
2018-06-27T10:28:03.395Z,60234.29
2018-06-27T10:30:31.575Z,60234.29
2018-06-27T10:32:59.772Z,60210.91
2018-06-27T10:35:27.962Z,60184.49
2018-06-27T10:37:56.170Z,60191.61
2018-06-27T10:40:24.341Z,60218.03
2018-06-27T10:42:52.579Z,60239.36
2018-06-27T10:45:20.867Z,60224.12
2018-06-27T10:47:49.055Z,60236.32
2018-06-27T10:50:17.257Z,60243.43
2018-06-27T10:52:45.427Z,60247.49
2018-06-27T10:55:20.155Z,60212.95
2018-06-27T10:57:48.595Z,60184.49
2018-06-27T11:00:16.772Z,60208.88
2018-06-27T11:02:44.935Z,60173.32
2018-06-27T11:05:13.129Z,60171.29
2018-06-27T11:07:41.307Z,60164.17
2018-06-27T11:10:09.747Z,60149.95
2018-06-27T11:12:37.918Z,60171.29
2018-06-27T11:15:06.911Z,60184.49
2018-06-27T11:17:35.071Z,60166.20
2018-06-27T11:20:03.279Z,60159.09
2018-06-27T11:22:31.456Z,60148.93
2018-06-27T11:24:59.611Z,60163.16
2018-06-27T11:27:27.796Z,60161.12
2018-06-27T11:29:56.020Z,60182.46
2018-06-27T11:32:24.562Z,60161.12
2018-06-27T11:34:52.736Z,60174.33
2018-06-27T11:37:20.903Z,60175.35
2018-06-27T11:39:49.072Z,60199.74
2018-06-27T11:42:17.248Z,60205.83
2018-06-27T11:44:45.421Z,60190.59
2018-06-27T11:47:13.587Z,60169.25
2018-06-27T11:49:41.760Z,60181.45
2018-06-27T11:52:09.935Z,60175.35
2018-06-27T11:54:38.128Z,60197.70
2018-06-27T11:57:06.323Z,60197.70
2018-06-27T11:59:34.512Z,60197.70
2018-06-27T12:02:02.691Z,60199.74
2018-06-27T12:04:30.879Z,60212.95
2018-06-27T12:06:59.066Z,60198.72
2018-06-27T12:09:27.387Z,60204.82
2018-06-27T12:11:55.579Z,60176.37
2018-06-27T12:14:23.755Z,60177.38
2018-06-27T12:16:51.985Z,60180.43
2018-06-27T12:19:20.131Z,60176.37
2018-06-27T12:21:48.295Z,60178.40
2018-06-27T12:24:16.460Z,60173.32
2018-06-27T12:26:44.628Z,60174.33
2018-06-27T12:29:12.779Z,60194.66
2018-06-27T12:31:40.987Z,60183.48
2018-06-27T12:34:09.145Z,60174.33
2018-06-27T12:36:37.327Z,60160.11
2018-06-27T12:39:07.279Z,60183.48
2018-06-27T12:41:35.455Z,60167.22
2018-06-27T12:44:03.634Z,60184.49
2018-06-27T12:46:31.823Z,60218.03
2018-06-27T12:48:59.990Z,60194.66
2018-06-27T12:51:28.179Z,60191.61
2018-06-27T12:53:56.359Z,60190.59
2018-06-27T12:56:24.519Z,60193.64
2018-06-27T12:58:53.019Z,60186.52
2018-06-27T13:01:21.191Z,60213.96
2018-06-27T13:03:49.346Z,60209.90
2018-06-27T13:06:17.515Z,60196.69
2018-06-27T13:08:45.743Z,60214.98
2018-06-27T13:11:13.870Z,60206.85
2018-06-27T13:13:42.059Z,60197.70
2018-06-27T13:16:10.247Z,60213.96
2018-06-27T13:18:38.437Z,60177.38
2018-06-27T13:21:06.626Z,60194.66
2018-06-27T13:23:34.807Z,60225.14
2018-06-27T13:26:02.983Z,60207.86
2018-06-27T13:28:31.142Z,60206.85
2018-06-27T13:30:59.359Z,60204.82
2018-06-27T13:33:27.529Z,60217.01
2018-06-27T13:35:56.165Z,60218.03
2018-06-27T13:38:24.327Z,60226.16
2018-06-27T13:40:52.507Z,60212.95
2018-06-27T13:43:20.799Z,60225.14
2018-06-27T13:45:49.307Z,60236.32
2018-06-27T13:48:17.517Z,60218.03
2018-06-27T13:50:45.743Z,60237.33
2018-06-27T13:53:13.941Z,60240.38
2018-06-27T13:55:42.219Z,60222.09
2018-06-27T13:58:10.379Z,60212.95
2018-06-27T14:00:39.070Z,60218.03
2018-06-27T14:03:07.280Z,60211.93
2018-06-27T14:05:35.453Z,60232.25
2018-06-27T14:08:03.671Z,60228.19
2018-06-27T14:10:31.830Z,60212.95
2018-06-27T14:12:59.988Z,60220.06
2018-06-27T14:15:28.186Z,60208.88
2018-06-27T14:17:56.348Z,60218.03
2018-06-27T14:20:24.519Z,60200.75
2018-06-27T14:22:52.703Z,60206.85
2018-06-27T14:25:20.887Z,60231.24
2018-06-27T14:27:49.059Z,60229.20
2018-06-27T14:30:17.251Z,60235.30
2018-06-27T14:32:45.412Z,60226.16
2018-06-27T14:35:13.603Z,60231.24
2018-06-27T14:37:41.788Z,60219.04
2018-06-27T14:40:10.015Z,60243.43
2018-06-27T14:42:38.207Z,60229.20
2018-06-27T14:45:06.690Z,60229.20
2018-06-27T14:47:34.867Z,60224.12
2018-06-27T14:50:03.063Z,60224.12
2018-06-27T14:52:31.295Z,60225.14
2018-06-27T14:54:59.423Z,60218.03
2018-06-27T14:57:27.603Z,60237.33
2018-06-27T14:59:55.795Z,60225.14
2018-06-27T15:02:24.006Z,60230.22
2018-06-27T15:04:52.225Z,60237.33
2018-06-27T15:07:20.411Z,60231.24
2018-06-27T15:09:48.595Z,60219.04
2018-06-27T15:12:16.773Z,60229.20
2018-06-27T15:14:44.959Z,60232.25
2018-06-27T15:17:13.137Z,60256.64
2018-06-27T15:19:41.312Z,60231.24
2018-06-27T15:22:09.527Z,60212.95
2018-06-27T15:24:37.710Z,60240.38
2018-06-27T15:27:05.907Z,60233.27
2018-06-27T15:29:34.211Z,60239.36
2018-06-27T15:32:02.387Z,60244.45
2018-06-27T15:34:30.551Z,60236.32
2018-06-27T15:36:58.735Z,60232.25
2018-06-27T15:39:26.923Z,60241.40
2018-06-27T15:41:55.094Z,60244.45
2018-06-27T15:44:23.291Z,60247.49
2018-06-27T15:46:51.647Z,60231.24
2018-06-27T15:49:19.999Z,60226.16
2018-06-27T15:51:48.176Z,60247.49
2018-06-27T15:54:16.351Z,60235.30
2018-06-27T15:56:44.519Z,60235.30
2018-06-27T15:59:12.780Z,60267.82
2018-06-27T16:01:40.944Z,60226.16
2018-06-27T16:04:09.123Z,60226.16
2018-06-27T16:06:37.363Z,60238.35
2018-06-27T16:09:07.395Z,60247.49
2018-06-27T16:11:35.704Z,60250.54
2018-06-27T16:14:03.895Z,60236.32
2018-06-27T16:16:32.071Z,60233.27
2018-06-27T16:19:00.371Z,60244.45
2018-06-27T16:21:28.579Z,60249.53
2018-06-27T16:23:56.762Z,60230.22
2018-06-27T16:26:24.967Z,60258.67
2018-06-27T16:28:53.171Z,60258.67
2018-06-27T16:31:21.352Z,60247.49
2018-06-27T16:33:49.899Z,60245.46
2018-06-27T16:36:18.115Z,60227.17
2018-06-27T16:38:46.295Z,60240.38
2018-06-27T16:41:14.508Z,60255.63
2018-06-27T16:43:42.687Z,60261.72
2018-06-27T16:46:10.881Z,60252.57
2018-06-27T16:48:40.012Z,60249.53
2018-06-27T16:51:08.375Z,60222.09
2018-06-27T16:53:36.464Z,60244.45
2018-06-27T16:56:04.801Z,60242.41
2018-06-27T16:58:33.065Z,60246.48
2018-06-27T17:01:01.280Z,60250.54
2018-06-27T17:03:29.424Z,60243.43
2018-06-27T17:05:57.617Z,60260.71
2018-06-27T17:08:25.883Z,60250.54
2018-06-27T17:10:54.046Z,60250.54
2018-06-27T17:13:22.260Z,60245.46
2018-06-27T17:15:50.430Z,60241.40
2018-06-27T17:18:18.616Z,60263.75
2018-06-27T17:20:46.819Z,60255.63
2018-06-27T17:23:14.995Z,60229.20
2018-06-27T17:25:43.167Z,60253.59
2018-06-27T17:28:11.343Z,60236.32
2018-06-27T17:30:39.681Z,60232.25
2018-06-27T17:33:07.795Z,60236.32
2018-06-27T17:35:36.004Z,60232.25
2018-06-27T17:38:04.257Z,60251.56
2018-06-27T17:40:32.392Z,60243.43
2018-06-27T17:43:00.567Z,60253.59
2018-06-27T17:45:28.726Z,60255.63
2018-06-27T17:47:56.927Z,60238.35
2018-06-27T17:50:25.139Z,60256.64
2018-06-27T17:52:53.311Z,60238.35
2018-06-27T17:55:21.519Z,60239.36
2018-06-27T17:57:49.739Z,60239.36
2018-06-27T18:00:18.138Z,60232.25
2018-06-27T18:02:47.200Z,60248.51
2018-06-27T18:05:15.598Z,60261.72
2018-06-27T18:07:43.835Z,60252.57
2018-06-27T18:10:12.180Z,60247.49
2018-06-27T18:12:40.558Z,60270.87
2018-06-27T18:15:08.956Z,60253.59
2018-06-27T18:17:37.188Z,60249.53
2018-06-27T18:20:06.526Z,60254.61
2018-06-27T18:22:34.716Z,60261.72
2018-06-27T18:25:03.103Z,60253.59
2018-06-27T18:27:31.304Z,60271.88
2018-06-27T18:29:59.488Z,60251.56
2018-06-27T18:32:27.658Z,60252.57
2018-06-27T18:34:55.843Z,60253.59
2018-06-27T18:37:24.016Z,60259.69
2018-06-27T18:39:52.203Z,60281.03
2018-06-27T18:42:20.395Z,60255.63
2018-06-27T18:44:48.575Z,60264.77
2018-06-27T18:47:16.784Z,60255.63
2018-06-27T18:49:45.035Z,60263.75
2018-06-27T18:52:13.227Z,60262.74
2018-06-27T18:54:41.427Z,60278.99
2018-06-27T18:57:09.638Z,60261.72
2018-06-27T18:59:37.819Z,60274.93
2018-06-27T19:02:06.388Z,60270.87
2018-06-27T19:04:34.966Z,60273.91
2018-06-27T19:07:03.171Z,60283.06
2018-06-27T19:09:31.656Z,60283.06
2018-06-27T19:12:00.076Z,60263.75
2018-06-27T19:14:28.281Z,60268.83
2018-06-27T19:16:56.624Z,60297.29
2018-06-27T19:19:24.887Z,60282.04
2018-06-27T19:21:53.070Z,60300.34
2018-06-27T19:24:21.411Z,60295.25
2018-06-27T19:26:50.130Z,60296.27
2018-06-27T19:29:18.299Z,60293.22
2018-06-27T19:31:46.953Z,60310.50
2018-06-27T19:34:15.651Z,60280.01
2018-06-27T19:36:44.175Z,60283.06
2018-06-27T19:39:13.233Z,60288.14
2018-06-27T19:41:41.424Z,60296.27
2018-06-27T19:44:10.439Z,60299.32
2018-06-27T19:46:38.626Z,60307.45
2018-06-27T19:49:06.866Z,60304.40
2018-06-27T19:51:35.121Z,60306.43
2018-06-27T19:54:03.283Z,60308.46
2018-06-27T19:56:31.471Z,60292.21
2018-06-27T19:58:59.647Z,60295.25
2018-06-27T20:01:27.815Z,60289.16
2018-06-27T20:03:55.992Z,60316.59
2018-06-27T20:06:24.171Z,60317.61
2018-06-27T20:08:52.351Z,60339.96
2018-06-27T20:11:20.554Z,60313.54
2018-06-27T20:13:48.725Z,60302.37
2018-06-27T20:16:16.915Z,60307.45
2018-06-27T20:18:45.088Z,60301.35
2018-06-27T20:21:13.263Z,60303.38
2018-06-27T20:23:41.423Z,60316.59
2018-06-27T20:26:09.631Z,60336.91
2018-06-27T20:28:37.804Z,60325.74
2018-06-27T20:31:06.217Z,60321.67
2018-06-27T20:33:34.351Z,60315.57
2018-06-27T20:36:02.600Z,60324.72
2018-06-27T20:38:30.833Z,60336.91
2018-06-27T20:40:58.979Z,60327.77
2018-06-27T20:43:27.155Z,60308.46
2018-06-27T20:45:55.323Z,60306.43
2018-06-27T20:48:23.515Z,60321.67
2018-06-27T20:50:51.731Z,60310.50
2018-06-27T20:53:19.907Z,60335.90
2018-06-27T20:55:48.107Z,60325.74
2018-06-27T20:58:16.267Z,60327.77
2018-06-27T21:00:44.435Z,60320.66
2018-06-27T21:03:12.623Z,60325.74
2018-06-27T21:05:40.803Z,60327.77
2018-06-27T21:08:09.021Z,60327.77
2018-06-27T21:10:37.230Z,60343.01
2018-06-27T21:13:05.514Z,60335.90
2018-06-27T21:15:33.695Z,60352.16
2018-06-27T21:18:01.874Z,60333.87
2018-06-27T21:20:30.047Z,60366.39
2018-06-27T21:22:58.231Z,60347.08
2018-06-27T21:25:26.538Z,60337.93
2018-06-27T21:27:54.691Z,60338.95
2018-06-27T21:30:22.884Z,60342.00
2018-06-27T21:32:51.040Z,60319.64
2018-06-27T21:35:19.274Z,60324.72
2018-06-27T21:37:47.388Z,60322.69
2018-06-27T21:40:15.558Z,60353.18
2018-06-27T21:42:43.732Z,60310.50
2018-06-27T21:45:11.906Z,60328.79
2018-06-27T21:47:40.233Z,60319.64
2018-06-27T21:50:08.407Z,60332.85
2018-06-27T21:52:36.572Z,60348.09
2018-06-27T21:55:04.921Z,60311.51
2018-06-27T21:57:33.073Z,60348.09
2018-06-27T22:00:01.266Z,60336.91
2018-06-27T22:02:29.431Z,60350.12
2018-06-27T22:04:57.611Z,60364.35
2018-06-27T22:07:25.796Z,60334.88
2018-06-27T22:09:53.967Z,60361.30
2018-06-27T22:12:22.195Z,60346.06
2018-06-27T22:14:50.367Z,60323.71
2018-06-27T22:17:18.539Z,60342.00
2018-06-27T22:19:46.707Z,60345.04
2018-06-27T22:22:14.871Z,60356.22
2018-06-27T22:24:43.051Z,60349.11
2018-06-27T22:27:11.235Z,60316.59
2018-06-27T22:29:39.571Z,60331.84
2018-06-27T22:32:07.735Z,60346.06
2018-06-27T22:34:36.347Z,60348.09
2018-06-27T22:37:04.552Z,60347.08
2018-06-27T22:39:32.739Z,60333.87
2018-06-27T22:42:00.921Z,60353.18
2018-06-27T22:44:29.111Z,60356.22
2018-06-27T22:46:57.283Z,60361.30
2018-06-27T22:49:25.469Z,60343.01
2018-06-27T22:51:53.620Z,60333.87
2018-06-27T22:54:21.815Z,60358.25
2018-06-27T22:56:49.992Z,60367.40
2018-06-27T22:59:18.155Z,60366.39
2018-06-27T23:01:46.330Z,60376.55
2018-06-27T23:04:14.507Z,60349.11
2018-06-27T23:06:42.703Z,60340.98
2018-06-27T23:09:11.386Z,60335.90
2018-06-27T23:11:39.662Z,60384.68
2018-06-27T23:14:08.059Z,60375.53
2018-06-27T23:16:36.213Z,60359.27
2018-06-27T23:19:04.406Z,60367.40
2018-06-27T23:21:32.589Z,60346.06
2018-06-27T23:24:00.752Z,60355.21
2018-06-27T23:26:28.959Z,60365.37
2018-06-27T23:28:57.127Z,60362.32
2018-06-27T23:31:25.303Z,60345.04
2018-06-27T23:33:53.752Z,60366.39
2018-06-27T23:36:21.927Z,60350.12
2018-06-27T23:38:50.122Z,60375.53
2018-06-27T23:41:18.279Z,60355.21
2018-06-27T23:43:49.319Z,60379.59
2018-06-27T23:46:17.499Z,60357.24
2018-06-27T23:48:45.675Z,60372.48
2018-06-27T23:51:13.874Z,60363.34
2018-06-27T23:53:42.066Z,60373.50
2018-06-27T23:56:10.259Z,60349.11
2018-06-27T23:58:38.455Z,60372.48
